sensor_id;sensor_type;location;lat;lon;timestamp;P1;durP1;ratioP1;P2;durP2;ratioP2
17472;SDS011;8853;52.552;13.356;2022-07-10T00:01:06;4.40;;;2.87;;
17472;SDS011;8853;52.552;13.356;2022-07-10T00:03:35;4.45;;;3.17;;
17472;SDS011;8853;52.552;13.356;2022-07-10T00:06:03;4.90;;;3.10;;
17472;SDS011;8853;52.552;13.356;2022-07-10T00:08:32;5.53;;;3.58;;
17472;SDS011;8853;52.552;13.356;2022-07-10T00:11:01;5.10;;;3.60;;
17472;SDS011;8853;52.552;13.356;2022-07-10T00:13:29;4.70;;;3.27;;
17472;SDS011;8853;52.552;13.356;2022-07-10T00:15:58;4.37;;;2.98;;
17472;SDS011;8853;52.552;13.356;2022-07-10T00:18:27;4.45;;;3.45;;
17472;SDS011;8853;52.552;13.356;2022-07-10T00:20:55;4.62;;;3.02;;
17472;SDS011;8853;52.552;13.356;2022-07-10T00:23:25;4.55;;;3.40;;
17472;SDS011;8853;52.552;13.356;2022-07-10T00:25:53;4.80;;;3.40;;
17472;SDS011;8853;52.552;13.356;2022-07-10T00:28:24;5.30;;;3.37;;
17472;SDS011;8853;52.552;13.356;2022-07-10T00:30:52;4.45;;;3.12;;
17472;SDS011;8853;52.552;13.356;2022-07-10T00:33:21;4.42;;;3.15;;
17472;SDS011;8853;52.552;13.356;2022-07-10T00:35:50;4.03;;;3.10;;
17472;SDS011;8853;52.552;13.356;2022-07-10T00:38:18;6.53;;;3.75;;
17472;SDS011;8853;52.552;13.356;2022-07-10T00:40:47;4.22;;;3.00;;
17472;SDS011;8853;52.552;13.356;2022-07-10T00:43:16;5.67;;;3.67;;
17472;SDS011;8853;52.552;13.356;2022-07-10T00:45:44;4.42;;;3.05;;
17472;SDS011;8853;52.552;13.356;2022-07-10T00:48:13;5.65;;;3.35;;
17472;SDS011;8853;52.552;13.356;2022-07-10T00:50:42;4.45;;;3.12;;
17472;SDS011;8853;52.552;13.356;2022-07-10T00:53:14;5.17;;;3.30;;
17472;SDS011;8853;52.552;13.356;2022-07-10T00:55:42;4.37;;;3.20;;
17472;SDS011;8853;52.552;13.356;2022-07-10T00:58:12;4.08;;;3.08;;
17472;SDS011;8853;52.552;13.356;2022-07-10T01:00:40;5.10;;;3.77;;
17472;SDS011;8853;52.552;13.356;2022-07-10T01:03:09;5.50;;;3.17;;
17472;SDS011;8853;52.552;13.356;2022-07-10T01:05:38;4.00;;;3.00;;
17472;SDS011;8853;52.552;13.356;2022-07-10T01:08:07;4.90;;;3.17;;
17472;SDS011;8853;52.552;13.356;2022-07-10T01:10:36;4.60;;;3.30;;
17472;SDS011;8853;52.552;13.356;2022-07-10T01:13:04;4.35;;;3.37;;
17472;SDS011;8853;52.552;13.356;2022-07-10T01:15:34;5.35;;;3.42;;
17472;SDS011;8853;52.552;13.356;2022-07-10T01:18:02;4.83;;;3.40;;
17472;SDS011;8853;52.552;13.356;2022-07-10T01:20:32;5.72;;;3.85;;
17472;SDS011;8853;52.552;13.356;2022-07-10T01:23:00;5.00;;;3.40;;
17472;SDS011;8853;52.552;13.356;2022-07-10T01:25:29;4.67;;;3.30;;
17472;SDS011;8853;52.552;13.356;2022-07-10T01:27:58;4.50;;;3.17;;
17472;SDS011;8853;52.552;13.356;2022-07-10T01:30:26;5.25;;;3.42;;
17472;SDS011;8853;52.552;13.356;2022-07-10T01:32:55;5.20;;;3.30;;
17472;SDS011;8853;52.552;13.356;2022-07-10T01:35:23;4.28;;;3.08;;
17472;SDS011;8853;52.552;13.356;2022-07-10T01:37:52;5.80;;;3.62;;
17472;SDS011;8853;52.552;13.356;2022-07-10T01:40:21;4.90;;;3.25;;
17472;SDS011;8853;52.552;13.356;2022-07-10T01:42:49;4.00;;;3.02;;
17472;SDS011;8853;52.552;13.356;2022-07-10T01:45:18;4.65;;;3.17;;
17472;SDS011;8853;52.552;13.356;2022-07-10T01:47:47;3.80;;;2.87;;
17472;SDS011;8853;52.552;13.356;2022-07-10T01:50:15;4.95;;;3.22;;
17472;SDS011;8853;52.552;13.356;2022-07-10T01:52:44;4.47;;;3.20;;
17472;SDS011;8853;52.552;13.356;2022-07-10T01:55:12;4.58;;;3.22;;
17472;SDS011;8853;52.552;13.356;2022-07-10T01:57:41;4.00;;;2.90;;
17472;SDS011;8853;52.552;13.356;2022-07-10T02:00:10;3.98;;;2.87;;
17472;SDS011;8853;52.552;13.356;2022-07-10T02:02:39;4.22;;;2.90;;
17472;SDS011;8853;52.552;13.356;2022-07-10T02:05:07;4.75;;;3.00;;
17472;SDS011;8853;52.552;13.356;2022-07-10T02:07:36;3.75;;;2.83;;
17472;SDS011;8853;52.552;13.356;2022-07-10T02:10:05;4.42;;;2.90;;
17472;SDS011;8853;52.552;13.356;2022-07-10T02:12:35;4.58;;;2.87;;
17472;SDS011;8853;52.552;13.356;2022-07-10T02:15:03;3.37;;;2.70;;
17472;SDS011;8853;52.552;13.356;2022-07-10T02:17:32;4.90;;;3.00;;
17472;SDS011;8853;52.552;13.356;2022-07-10T02:20:01;5.37;;;3.00;;
17472;SDS011;8853;52.552;13.356;2022-07-10T02:22:30;3.90;;;2.80;;
17472;SDS011;8853;52.552;13.356;2022-07-10T02:24:58;4.12;;;2.98;;
17472;SDS011;8853;52.552;13.356;2022-07-10T02:27:27;3.72;;;2.70;;
17472;SDS011;8853;52.552;13.356;2022-07-10T02:29:55;3.83;;;2.80;;
17472;SDS011;8853;52.552;13.356;2022-07-10T02:32:24;3.22;;;2.50;;
17472;SDS011;8853;52.552;13.356;2022-07-10T02:34:53;3.25;;;2.65;;
17472;SDS011;8853;52.552;13.356;2022-07-10T02:37:21;3.67;;;2.80;;
17472;SDS011;8853;52.552;13.356;2022-07-10T02:39:50;4.42;;;3.08;;
17472;SDS011;8853;52.552;13.356;2022-07-10T02:42:19;4.45;;;2.80;;
17472;SDS011;8853;52.552;13.356;2022-07-10T02:44:48;3.27;;;2.42;;
17472;SDS011;8853;52.552;13.356;2022-07-10T02:47:16;3.10;;;2.62;;
17472;SDS011;8853;52.552;13.356;2022-07-10T02:49:45;3.58;;;2.65;;
17472;SDS011;8853;52.552;13.356;2022-07-10T02:52:14;4.65;;;2.72;;
17472;SDS011;8853;52.552;13.356;2022-07-10T02:54:42;3.85;;;2.55;;
17472;SDS011;8853;52.552;13.356;2022-07-10T03:01:52;3.75;;;2.55;;
17472;SDS011;8853;52.552;13.356;2022-07-10T03:04:20;3.50;;;2.62;;
17472;SDS011;8853;52.552;13.356;2022-07-10T03:06:49;4.75;;;2.40;;
17472;SDS011;8853;52.552;13.356;2022-07-10T03:09:17;3.47;;;2.50;;
17472;SDS011;8853;52.552;13.356;2022-07-10T03:11:46;3.67;;;2.47;;
17472;SDS011;8853;52.552;13.356;2022-07-10T03:14:14;3.22;;;2.35;;
17472;SDS011;8853;52.552;13.356;2022-07-10T03:16:43;3.72;;;2.70;;
17472;SDS011;8853;52.552;13.356;2022-07-10T03:19:12;3.40;;;2.52;;
17472;SDS011;8853;52.552;13.356;2022-07-10T03:21:42;4.12;;;2.30;;
17472;SDS011;8853;52.552;13.356;2022-07-10T03:24:11;4.22;;;2.67;;
17472;SDS011;8853;52.552;13.356;2022-07-10T03:26:39;3.08;;;2.35;;
17472;SDS011;8853;52.552;13.356;2022-07-10T03:29:09;3.35;;;2.40;;
17472;SDS011;8853;52.552;13.356;2022-07-10T03:31:37;3.15;;;2.30;;
17472;SDS011;8853;52.552;13.356;2022-07-10T03:34:06;3.70;;;2.75;;
17472;SDS011;8853;52.552;13.356;2022-07-10T03:36:35;3.35;;;2.40;;
17472;SDS011;8853;52.552;13.356;2022-07-10T03:39:03;2.75;;;2.30;;
17472;SDS011;8853;52.552;13.356;2022-07-10T03:41:33;2.80;;;2.08;;
17472;SDS011;8853;52.552;13.356;2022-07-10T03:44:01;3.05;;;2.27;;
17472;SDS011;8853;52.552;13.356;2022-07-10T03:46:30;3.40;;;2.40;;
17472;SDS011;8853;52.552;13.356;2022-07-10T03:48:58;3.58;;;2.47;;
17472;SDS011;8853;52.552;13.356;2022-07-10T03:51:27;4.12;;;2.40;;
17472;SDS011;8853;52.552;13.356;2022-07-10T03:53:56;3.37;;;2.12;;
17472;SDS011;8853;52.552;13.356;2022-07-10T03:56:25;2.72;;;2.17;;
17472;SDS011;8853;52.552;13.356;2022-07-10T03:59:12;2.83;;;2.30;;
17472;SDS011;8853;52.552;13.356;2022-07-10T04:01:41;3.00;;;2.00;;
17472;SDS011;8853;52.552;13.356;2022-07-10T04:04:10;3.85;;;2.40;;
17472;SDS011;8853;52.552;13.356;2022-07-10T04:06:38;3.50;;;2.22;;
17472;SDS011;8853;52.552;13.356;2022-07-10T04:09:07;2.25;;;1.87;;
17472;SDS011;8853;52.552;13.356;2022-07-10T04:11:36;3.02;;;2.33;;
17472;SDS011;8853;52.552;13.356;2022-07-10T04:14:04;4.60;;;2.20;;
17472;SDS011;8853;52.552;13.356;2022-07-10T04:16:33;2.27;;;2.05;;
17472;SDS011;8853;52.552;13.356;2022-07-10T04:19:01;3.25;;;2.30;;
17472;SDS011;8853;52.552;13.356;2022-07-10T04:21:30;2.80;;;1.90;;
17472;SDS011;8853;52.552;13.356;2022-07-10T04:23:59;3.12;;;2.12;;
17472;SDS011;8853;52.552;13.356;2022-07-10T04:26:27;2.80;;;1.90;;
17472;SDS011;8853;52.552;13.356;2022-07-10T04:28:56;2.77;;;2.10;;
17472;SDS011;8853;52.552;13.356;2022-07-10T04:31:25;4.35;;;2.30;;
17472;SDS011;8853;52.552;13.356;2022-07-10T04:33:54;4.22;;;2.20;;
17472;SDS011;8853;52.552;13.356;2022-07-10T04:36:23;2.83;;;2.00;;
17472;SDS011;8853;52.552;13.356;2022-07-10T04:38:51;4.53;;;2.40;;
17472;SDS011;8853;52.552;13.356;2022-07-10T04:41:20;2.50;;;1.98;;
17472;SDS011;8853;52.552;13.356;2022-07-10T04:43:49;2.58;;;1.95;;
17472;SDS011;8853;52.552;13.356;2022-07-10T04:46:18;3.67;;;2.10;;
17472;SDS011;8853;52.552;13.356;2022-07-10T04:48:46;3.15;;;2.08;;
17472;SDS011;8853;52.552;13.356;2022-07-10T04:51:15;2.70;;;2.10;;
17472;SDS011;8853;52.552;13.356;2022-07-10T04:53:44;2.62;;;1.95;;
17472;SDS011;8853;52.552;13.356;2022-07-10T04:56:13;2.05;;;1.75;;
17472;SDS011;8853;52.552;13.356;2022-07-10T04:58:42;3.05;;;2.00;;
17472;SDS011;8853;52.552;13.356;2022-07-10T05:01:10;2.83;;;1.80;;
17472;SDS011;8853;52.552;13.356;2022-07-10T05:03:40;2.05;;;1.67;;
17472;SDS011;8853;52.552;13.356;2022-07-10T05:06:08;2.65;;;1.90;;
17472;SDS011;8853;52.552;13.356;2022-07-10T05:08:38;2.60;;;2.00;;
17472;SDS011;8853;52.552;13.356;2022-07-10T05:11:07;3.05;;;2.05;;
17472;SDS011;8853;52.552;13.356;2022-07-10T05:13:36;3.42;;;2.30;;
17472;SDS011;8853;52.552;13.356;2022-07-10T05:16:05;2.02;;;1.65;;
17472;SDS011;8853;52.552;13.356;2022-07-10T05:18:33;3.08;;;2.02;;
17472;SDS011;8853;52.552;13.356;2022-07-10T05:21:02;2.30;;;1.80;;
17472;SDS011;8853;52.552;13.356;2022-07-10T05:23:31;3.02;;;1.98;;
17472;SDS011;8853;52.552;13.356;2022-07-10T05:25:59;2.50;;;1.75;;
17472;SDS011;8853;52.552;13.356;2022-07-10T05:28:28;2.50;;;1.95;;
17472;SDS011;8853;52.552;13.356;2022-07-10T05:30:57;2.50;;;1.95;;
17472;SDS011;8853;52.552;13.356;2022-07-10T05:33:25;2.87;;;1.87;;
17472;SDS011;8853;52.552;13.356;2022-07-10T05:35:54;3.40;;;2.00;;
17472;SDS011;8853;52.552;13.356;2022-07-10T05:38:23;1.98;;;1.67;;
17472;SDS011;8853;52.552;13.356;2022-07-10T05:40:52;2.72;;;1.98;;
17472;SDS011;8853;52.552;13.356;2022-07-10T05:43:20;2.80;;;2.10;;
17472;SDS011;8853;52.552;13.356;2022-07-10T05:45:49;4.80;;;2.65;;
17472;SDS011;8853;52.552;13.356;2022-07-10T05:48:17;2.92;;;2.12;;
17472;SDS011;8853;52.552;13.356;2022-07-10T05:50:46;3.45;;;2.25;;
17472;SDS011;8853;52.552;13.356;2022-07-10T05:53:15;2.80;;;1.90;;
17472;SDS011;8853;52.552;13.356;2022-07-10T05:55:45;2.87;;;1.80;;
17472;SDS011;8853;52.552;13.356;2022-07-10T05:58:14;2.87;;;2.00;;
17472;SDS011;8853;52.552;13.356;2022-07-10T06:00:42;3.20;;;1.85;;
17472;SDS011;8853;52.552;13.356;2022-07-10T06:03:11;3.17;;;2.02;;
17472;SDS011;8853;52.552;13.356;2022-07-10T06:05:40;2.87;;;2.00;;
17472;SDS011;8853;52.552;13.356;2022-07-10T06:08:08;2.12;;;1.70;;
17472;SDS011;8853;52.552;13.356;2022-07-10T06:10:37;3.33;;;2.00;;
17472;SDS011;8853;52.552;13.356;2022-07-10T06:13:06;3.45;;;2.20;;
17472;SDS011;8853;52.552;13.356;2022-07-10T06:15:35;2.17;;;1.85;;
17472;SDS011;8853;52.552;13.356;2022-07-10T06:18:04;2.87;;;1.95;;
17472;SDS011;8853;52.552;13.356;2022-07-10T06:20:32;2.92;;;2.00;;
17472;SDS011;8853;52.552;13.356;2022-07-10T06:23:01;3.22;;;2.00;;
17472;SDS011;8853;52.552;13.356;2022-07-10T06:25:29;3.35;;;1.90;;
17472;SDS011;8853;52.552;13.356;2022-07-10T06:27:58;2.05;;;1.75;;
17472;SDS011;8853;52.552;13.356;2022-07-10T06:30:27;2.77;;;1.90;;
17472;SDS011;8853;52.552;13.356;2022-07-10T06:32:55;2.42;;;1.80;;
17472;SDS011;8853;52.552;13.356;2022-07-10T06:35:24;2.98;;;2.20;;
17472;SDS011;8853;52.552;13.356;2022-07-10T06:37:53;2.85;;;2.05;;
17472;SDS011;8853;52.552;13.356;2022-07-10T06:40:21;4.55;;;2.20;;
17472;SDS011;8853;52.552;13.356;2022-07-10T06:42:50;3.60;;;2.05;;
17472;SDS011;8853;52.552;13.356;2022-07-10T06:45:18;2.62;;;1.82;;
17472;SDS011;8853;52.552;13.356;2022-07-10T06:47:47;2.72;;;1.82;;
17472;SDS011;8853;52.552;13.356;2022-07-10T06:50:29;2.00;;;1.80;;
17472;SDS011;8853;52.552;13.356;2022-07-10T06:52:57;3.25;;;1.92;;
17472;SDS011;8853;52.552;13.356;2022-07-10T06:55:25;2.83;;;1.80;;
17472;SDS011;8853;52.552;13.356;2022-07-10T06:57:54;3.85;;;2.35;;
17472;SDS011;8853;52.552;13.356;2022-07-10T07:00:23;3.35;;;2.50;;
17472;SDS011;8853;52.552;13.356;2022-07-10T07:02:52;2.55;;;1.72;;
17472;SDS011;8853;52.552;13.356;2022-07-10T07:05:20;4.70;;;2.37;;
17472;SDS011;8853;52.552;13.356;2022-07-10T07:07:49;2.98;;;2.15;;
17472;SDS011;8853;52.552;13.356;2022-07-10T07:10:18;3.02;;;2.10;;
17472;SDS011;8853;52.552;13.356;2022-07-10T07:12:46;2.98;;;1.90;;
17472;SDS011;8853;52.552;13.356;2022-07-10T07:15:16;3.65;;;2.37;;
17472;SDS011;8853;52.552;13.356;2022-07-10T07:17:44;2.37;;;1.90;;
17472;SDS011;8853;52.552;13.356;2022-07-10T07:20:26;3.95;;;2.17;;
17472;SDS011;8853;52.552;13.356;2022-07-10T07:23:13;2.67;;;1.92;;
17472;SDS011;8853;52.552;13.356;2022-07-10T07:25:41;3.55;;;2.02;;
17472;SDS011;8853;52.552;13.356;2022-07-10T07:28:10;3.40;;;2.22;;
17472;SDS011;8853;52.552;13.356;2022-07-10T07:30:39;4.00;;;2.17;;
17472;SDS011;8853;52.552;13.356;2022-07-10T07:33:07;3.75;;;2.55;;
17472;SDS011;8853;52.552;13.356;2022-07-10T07:35:36;3.22;;;2.00;;
17472;SDS011;8853;52.552;13.356;2022-07-10T07:38:05;3.33;;;2.10;;
17472;SDS011;8853;52.552;13.356;2022-07-10T07:40:33;3.42;;;2.08;;
17472;SDS011;8853;52.552;13.356;2022-07-10T07:43:04;3.22;;;1.80;;
17472;SDS011;8853;52.552;13.356;2022-07-10T07:45:32;2.90;;;2.08;;
17472;SDS011;8853;52.552;13.356;2022-07-10T07:48:01;3.98;;;1.95;;
17472;SDS011;8853;52.552;13.356;2022-07-10T07:50:32;2.72;;;1.95;;
17472;SDS011;8853;52.552;13.356;2022-07-10T07:53:00;2.87;;;1.92;;
17472;SDS011;8853;52.552;13.356;2022-07-10T07:55:29;2.22;;;1.75;;
17472;SDS011;8853;52.552;13.356;2022-07-10T07:57:57;3.60;;;2.05;;
17472;SDS011;8853;52.552;13.356;2022-07-10T08:00:26;3.70;;;1.92;;
17472;SDS011;8853;52.552;13.356;2022-07-10T08:02:56;3.10;;;2.15;;
17472;SDS011;8853;52.552;13.356;2022-07-10T08:05:23;2.98;;;2.00;;
17472;SDS011;8853;52.552;13.356;2022-07-10T08:07:58;3.45;;;2.00;;
17472;SDS011;8853;52.552;13.356;2022-07-10T08:10:26;2.40;;;1.90;;
17472;SDS011;8853;52.552;13.356;2022-07-10T08:12:54;2.70;;;1.98;;
17472;SDS011;8853;52.552;13.356;2022-07-10T08:15:23;3.90;;;2.17;;
17472;SDS011;8853;52.552;13.356;2022-07-10T08:17:53;2.83;;;2.00;;
17472;SDS011;8853;52.552;13.356;2022-07-10T08:20:21;2.90;;;2.10;;
17472;SDS011;8853;52.552;13.356;2022-07-10T08:22:49;2.50;;;1.85;;
17472;SDS011;8853;52.552;13.356;2022-07-10T08:25:18;2.72;;;2.10;;
17472;SDS011;8853;52.552;13.356;2022-07-10T08:27:47;2.85;;;2.10;;
17472;SDS011;8853;52.552;13.356;2022-07-10T08:30:16;2.77;;;1.77;;
17472;SDS011;8853;52.552;13.356;2022-07-10T08:32:45;3.37;;;1.87;;
17472;SDS011;8853;52.552;13.356;2022-07-10T08:35:13;3.75;;;2.12;;
17472;SDS011;8853;52.552;13.356;2022-07-10T08:37:43;2.20;;;1.90;;
17472;SDS011;8853;52.552;13.356;2022-07-10T08:40:12;4.45;;;2.30;;
17472;SDS011;8853;52.552;13.356;2022-07-10T08:42:43;2.92;;;1.90;;
17472;SDS011;8853;52.552;13.356;2022-07-10T08:45:11;2.60;;;1.90;;
17472;SDS011;8853;52.552;13.356;2022-07-10T08:47:40;2.47;;;1.92;;
17472;SDS011;8853;52.552;13.356;2022-07-10T08:50:15;2.90;;;1.95;;
17472;SDS011;8853;52.552;13.356;2022-07-10T08:52:48;3.12;;;2.00;;
17472;SDS011;8853;52.552;13.356;2022-07-10T08:55:21;3.75;;;2.00;;
17472;SDS011;8853;52.552;13.356;2022-07-10T08:57:50;2.45;;;1.90;;
17472;SDS011;8853;52.552;13.356;2022-07-10T09:00:18;2.83;;;1.90;;
17472;SDS011;8853;52.552;13.356;2022-07-10T09:02:47;3.72;;;1.80;;
17472;SDS011;8853;52.552;13.356;2022-07-10T09:05:16;2.67;;;1.70;;
17472;SDS011;8853;52.552;13.356;2022-07-10T09:07:44;2.50;;;1.80;;
17472;SDS011;8853;52.552;13.356;2022-07-10T09:10:13;2.70;;;1.90;;
17472;SDS011;8853;52.552;13.356;2022-07-10T09:12:49;3.45;;;2.12;;
17472;SDS011;8853;52.552;13.356;2022-07-10T09:15:17;3.25;;;1.95;;
17472;SDS011;8853;52.552;13.356;2022-07-10T09:17:51;4.58;;;2.12;;
17472;SDS011;8853;52.552;13.356;2022-07-10T09:23:17;2.30;;;1.70;;
17472;SDS011;8853;52.552;13.356;2022-07-10T09:25:49;3.95;;;2.05;;
17472;SDS011;8853;52.552;13.356;2022-07-10T09:28:18;2.42;;;1.90;;
17472;SDS011;8853;52.552;13.356;2022-07-10T09:30:46;1.92;;;1.52;;
17472;SDS011;8853;52.552;13.356;2022-07-10T09:33:27;3.25;;;2.00;;
17472;SDS011;8853;52.552;13.356;2022-07-10T09:41:22;3.30;;;1.92;;
17472;SDS011;8853;52.552;13.356;2022-07-10T09:46:25;2.45;;;1.80;;
17472;SDS011;8853;52.552;13.356;2022-07-10T09:51:38;2.80;;;1.75;;
17472;SDS011;8853;52.552;13.356;2022-07-10T09:54:11;2.85;;;1.70;;
17472;SDS011;8853;52.552;13.356;2022-07-10T09:56:44;3.10;;;2.00;;
17472;SDS011;8853;52.552;13.356;2022-07-10T09:59:16;3.83;;;1.70;;
17472;SDS011;8853;52.552;13.356;2022-07-10T10:01:44;2.65;;;1.82;;
17472;SDS011;8853;52.552;13.356;2022-07-10T10:04:13;2.62;;;1.70;;
17472;SDS011;8853;52.552;13.356;2022-07-10T10:06:41;2.85;;;2.00;;
17472;SDS011;8853;52.552;13.356;2022-07-10T10:09:12;2.85;;;1.67;;
17472;SDS011;8853;52.552;13.356;2022-07-10T10:12:04;2.77;;;2.08;;
17472;SDS011;8853;52.552;13.356;2022-07-10T10:14:37;2.22;;;1.75;;
17472;SDS011;8853;52.552;13.356;2022-07-10T10:17:06;2.85;;;1.72;;
17472;SDS011;8853;52.552;13.356;2022-07-10T10:19:35;2.77;;;1.70;;
17472;SDS011;8853;52.552;13.356;2022-07-10T10:22:22;3.08;;;1.72;;
17472;SDS011;8853;52.552;13.356;2022-07-10T10:24:51;3.33;;;1.80;;
17472;SDS011;8853;52.552;13.356;2022-07-10T10:27:20;2.35;;;1.60;;
17472;SDS011;8853;52.552;13.356;2022-07-10T10:29:49;3.22;;;1.90;;
17472;SDS011;8853;52.552;13.356;2022-07-10T10:32:18;2.90;;;1.80;;
17472;SDS011;8853;52.552;13.356;2022-07-10T10:34:47;2.90;;;1.70;;
17472;SDS011;8853;52.552;13.356;2022-07-10T10:39:56;2.65;;;1.50;;
17472;SDS011;8853;52.552;13.356;2022-07-10T10:42:34;2.60;;;1.72;;
17472;SDS011;8853;52.552;13.356;2022-07-10T10:50:41;2.83;;;1.65;;
17472;SDS011;8853;52.552;13.356;2022-07-10T10:58:39;3.22;;;1.90;;
17472;SDS011;8853;52.552;13.356;2022-07-10T11:01:24;4.25;;;1.45;;
17472;SDS011;8853;52.552;13.356;2022-07-10T11:14:29;4.22;;;2.22;;
17472;SDS011;8853;52.552;13.356;2022-07-10T11:16:57;3.42;;;2.10;;
17472;SDS011;8853;52.552;13.356;2022-07-10T11:19:26;2.77;;;1.80;;
17472;SDS011;8853;52.552;13.356;2022-07-10T11:30:10;3.42;;;2.45;;
17472;SDS011;8853;52.552;13.356;2022-07-10T11:32:39;3.72;;;2.20;;
17472;SDS011;8853;52.552;13.356;2022-07-10T11:35:13;3.95;;;2.37;;
17472;SDS011;8853;52.552;13.356;2022-07-10T11:37:50;3.50;;;2.30;;
17472;SDS011;8853;52.552;13.356;2022-07-10T11:40:23;4.45;;;2.33;;
17472;SDS011;8853;52.552;13.356;2022-07-10T11:42:53;4.28;;;2.45;;
17472;SDS011;8853;52.552;13.356;2022-07-10T11:45:27;3.75;;;2.83;;
17472;SDS011;8853;52.552;13.356;2022-07-10T11:47:57;4.25;;;2.90;;
17472;SDS011;8853;52.552;13.356;2022-07-10T11:50:26;4.67;;;2.90;;
17472;SDS011;8853;52.552;13.356;2022-07-10T11:52:54;6.12;;;3.45;;
17472;SDS011;8853;52.552;13.356;2022-07-10T11:55:22;4.95;;;3.12;;
17472;SDS011;8853;52.552;13.356;2022-07-10T11:57:51;3.83;;;2.85;;
17472;SDS011;8853;52.552;13.356;2022-07-10T12:00:26;4.35;;;3.05;;
17472;SDS011;8853;52.552;13.356;2022-07-10T12:02:54;5.72;;;3.45;;
17472;SDS011;8853;52.552;13.356;2022-07-10T12:05:29;6.00;;;3.65;;
17472;SDS011;8853;52.552;13.356;2022-07-10T12:07:58;6.47;;;4.00;;
17472;SDS011;8853;52.552;13.356;2022-07-10T12:10:27;5.90;;;3.80;;
17472;SDS011;8853;52.552;13.356;2022-07-10T12:13:08;8.40;;;4.17;;
17472;SDS011;8853;52.552;13.356;2022-07-10T12:15:39;12.18;;;4.28;;
17472;SDS011;8853;52.552;13.356;2022-07-10T12:18:16;5.35;;;3.80;;
17472;SDS011;8853;52.552;13.356;2022-07-10T12:20:43;6.03;;;4.08;;
17472;SDS011;8853;52.552;13.356;2022-07-10T12:23:12;4.72;;;3.40;;
17472;SDS011;8853;52.552;13.356;2022-07-10T12:25:41;5.35;;;3.55;;
17472;SDS011;8853;52.552;13.356;2022-07-10T12:28:09;5.62;;;4.20;;
17472;SDS011;8853;52.552;13.356;2022-07-10T12:30:47;5.37;;;3.85;;
17472;SDS011;8853;52.552;13.356;2022-07-10T12:33:15;6.08;;;4.28;;
17472;SDS011;8853;52.552;13.356;2022-07-10T12:35:47;6.40;;;3.92;;
17472;SDS011;8853;52.552;13.356;2022-07-10T12:38:28;6.05;;;4.10;;
17472;SDS011;8853;52.552;13.356;2022-07-10T12:41:09;6.40;;;4.10;;
17472;SDS011;8853;52.552;13.356;2022-07-10T12:43:37;6.12;;;4.20;;
17472;SDS011;8853;52.552;13.356;2022-07-10T12:48:41;6.75;;;4.50;;
17472;SDS011;8853;52.552;13.356;2022-07-10T12:51:36;8.25;;;4.90;;
17472;SDS011;8853;52.552;13.356;2022-07-10T12:54:03;7.12;;;4.80;;
17472;SDS011;8853;52.552;13.356;2022-07-10T12:56:32;7.55;;;4.85;;
17472;SDS011;8853;52.552;13.356;2022-07-10T12:59:11;6.30;;;4.53;;
17472;SDS011;8853;52.552;13.356;2022-07-10T13:01:40;7.37;;;4.60;;
17472;SDS011;8853;52.552;13.356;2022-07-10T13:04:08;7.60;;;5.03;;
17472;SDS011;8853;52.552;13.356;2022-07-10T13:06:38;7.30;;;5.10;;
17472;SDS011;8853;52.552;13.356;2022-07-10T13:09:25;8.85;;;5.87;;
17472;SDS011;8853;52.552;13.356;2022-07-10T13:11:48;8.48;;;6.00;;
17472;SDS011;8853;52.552;13.356;2022-07-10T13:14:16;7.58;;;5.37;;
17472;SDS011;8853;52.552;13.356;2022-07-10T13:16:45;7.80;;;5.83;;
17472;SDS011;8853;52.552;13.356;2022-07-10T13:19:13;9.40;;;6.35;;
17472;SDS011;8853;52.552;13.356;2022-07-10T13:21:42;8.18;;;5.72;;
17472;SDS011;8853;52.552;13.356;2022-07-10T13:24:11;7.75;;;6.37;;
17472;SDS011;8853;52.552;13.356;2022-07-10T13:26:39;9.03;;;6.15;;
17472;SDS011;8853;52.552;13.356;2022-07-10T13:29:08;10.32;;;6.60;;
17472;SDS011;8853;52.552;13.356;2022-07-10T13:31:36;8.63;;;6.45;;
17472;SDS011;8853;52.552;13.356;2022-07-10T13:34:05;8.23;;;6.05;;
17472;SDS011;8853;52.552;13.356;2022-07-10T13:36:35;9.05;;;6.72;;
17472;SDS011;8853;52.552;13.356;2022-07-10T13:39:03;9.58;;;6.47;;
17472;SDS011;8853;52.552;13.356;2022-07-10T13:41:32;9.83;;;6.47;;
17472;SDS011;8853;52.552;13.356;2022-07-10T13:44:00;8.25;;;6.17;;
17472;SDS011;8853;52.552;13.356;2022-07-10T13:46:29;9.43;;;6.37;;
17472;SDS011;8853;52.552;13.356;2022-07-10T13:48:58;11.05;;;6.30;;
17472;SDS011;8853;52.552;13.356;2022-07-10T13:51:27;12.10;;;7.25;;
17472;SDS011;8853;52.552;13.356;2022-07-10T13:53:56;10.53;;;7.20;;
17472;SDS011;8853;52.552;13.356;2022-07-10T13:56:25;11.40;;;7.60;;
17472;SDS011;8853;52.552;13.356;2022-07-10T13:58:53;9.85;;;6.60;;
17472;SDS011;8853;52.552;13.356;2022-07-10T14:01:22;11.75;;;7.58;;
17472;SDS011;8853;52.552;13.356;2022-07-10T14:03:51;12.58;;;7.92;;
17472;SDS011;8853;52.552;13.356;2022-07-10T14:06:19;14.80;;;8.70;;
17472;SDS011;8853;52.552;13.356;2022-07-10T14:08:48;13.62;;;8.38;;
17472;SDS011;8853;52.552;13.356;2022-07-10T14:11:17;15.65;;;9.20;;
17472;SDS011;8853;52.552;13.356;2022-07-10T14:13:45;14.18;;;8.90;;
17472;SDS011;8853;52.552;13.356;2022-07-10T14:16:14;15.70;;;9.93;;
17472;SDS011;8853;52.552;13.356;2022-07-10T14:18:43;14.35;;;9.13;;
17472;SDS011;8853;52.552;13.356;2022-07-10T14:21:11;12.28;;;8.68;;
17472;SDS011;8853;52.552;13.356;2022-07-10T14:23:41;15.28;;;9.80;;
17472;SDS011;8853;52.552;13.356;2022-07-10T14:26:09;14.43;;;9.68;;
17472;SDS011;8853;52.552;13.356;2022-07-10T14:28:39;16.80;;;10.05;;
17472;SDS011;8853;52.552;13.356;2022-07-10T14:31:07;13.98;;;8.95;;
17472;SDS011;8853;52.552;13.356;2022-07-10T14:33:36;14.87;;;8.90;;
17472;SDS011;8853;52.552;13.356;2022-07-10T14:36:05;16.82;;;10.72;;
17472;SDS011;8853;52.552;13.356;2022-07-10T14:38:34;15.05;;;9.53;;
17472;SDS011;8853;52.552;13.356;2022-07-10T14:41:03;13.85;;;9.63;;
17472;SDS011;8853;52.552;13.356;2022-07-10T14:43:31;15.13;;;9.28;;
17472;SDS011;8853;52.552;13.356;2022-07-10T14:46:00;14.55;;;8.45;;
17472;SDS011;8853;52.552;13.356;2022-07-10T14:48:29;13.05;;;9.15;;
17472;SDS011;8853;52.552;13.356;2022-07-10T14:50:57;13.65;;;9.25;;
17472;SDS011;8853;52.552;13.356;2022-07-10T14:53:26;13.60;;;8.75;;
17472;SDS011;8853;52.552;13.356;2022-07-10T14:55:55;15.50;;;9.33;;
17472;SDS011;8853;52.552;13.356;2022-07-10T14:58:23;12.47;;;8.23;;
17472;SDS011;8853;52.552;13.356;2022-07-10T15:00:52;14.20;;;8.70;;
17472;SDS011;8853;52.552;13.356;2022-07-10T15:03:21;13.68;;;8.40;;
17472;SDS011;8853;52.552;13.356;2022-07-10T15:05:50;12.98;;;8.15;;
17472;SDS011;8853;52.552;13.356;2022-07-10T15:08:19;13.55;;;8.53;;
17472;SDS011;8853;52.552;13.356;2022-07-10T15:10:50;11.70;;;8.08;;
17472;SDS011;8853;52.552;13.356;2022-07-10T15:13:18;14.47;;;8.23;;
17472;SDS011;8853;52.552;13.356;2022-07-10T15:15:47;13.00;;;8.30;;
17472;SDS011;8853;52.552;13.356;2022-07-10T15:18:16;12.50;;;7.80;;
17472;SDS011;8853;52.552;13.356;2022-07-10T15:20:45;13.00;;;7.85;;
17472;SDS011;8853;52.552;13.356;2022-07-10T15:23:13;11.88;;;7.33;;
17472;SDS011;8853;52.552;13.356;2022-07-10T15:25:42;12.82;;;7.65;;
17472;SDS011;8853;52.552;13.356;2022-07-10T15:28:10;12.33;;;7.45;;
17472;SDS011;8853;52.552;13.356;2022-07-10T15:30:39;13.35;;;7.78;;
17472;SDS011;8853;52.552;13.356;2022-07-10T15:33:08;12.88;;;7.87;;
17472;SDS011;8853;52.552;13.356;2022-07-10T15:35:37;10.30;;;7.20;;
17472;SDS011;8853;52.552;13.356;2022-07-10T15:38:05;11.95;;;6.83;;
17472;SDS011;8853;52.552;13.356;2022-07-10T15:40:34;10.80;;;7.03;;
17472;SDS011;8853;52.552;13.356;2022-07-10T15:43:03;10.82;;;6.80;;
17472;SDS011;8853;52.552;13.356;2022-07-10T15:45:31;11.80;;;7.20;;
17472;SDS011;8853;52.552;13.356;2022-07-10T15:48:00;9.73;;;6.50;;
17472;SDS011;8853;52.552;13.356;2022-07-10T15:50:28;9.68;;;6.53;;
17472;SDS011;8853;52.552;13.356;2022-07-10T15:52:58;9.85;;;6.25;;